Terminal Aerodrome Forecast
Issued by NWS

Home | Current Version | Previous Version | Text Only | Print | Product List | Glossary Off
Versions: 1 2 3 4 5 6 7 8 9 10 11 12 13 14 15 16 17 18

000
FTUS43 KGRB 231100
TAFAUW
TAF
KAUW 231136Z 2312/2412 23012G18KT P6SM BKN012 OVC110 WS016/25040KT
     FM231400 24012G18KT P6SM SCT015 OVC080 WS016/25040KT
      TEMPO 2318/2321 -PLSN BKN060
     FM232200 27009KT P6SM BKN020 OVC050
     FM240100 30008KT P6SM OVC012=

USA.gov is the U.S. government's official web portal to all federal, state and local government web resources and services.